Time;durP1;ratioP1;P1;durP2;ratioP2;P2;SDS_P1;SDS_P2;PMS_P1;PMS_P2;Temp;Humidity;BMP_temperature;BMP_pressure;BME280_temperature;BME280_humidity;BME280_pressure;Samples;Min_cycle;Max_cycle;Signal;HPM_P1;HPM_P2
2022/06/30 00:00:44;;;;;;;;;1.00;0.00;;;;;22.12;46.78;100731.56;5016101;28;45348;-72
2022/06/30 00:03:10;;;;;;;;;0.00;0.00;;;;;22.36;45.73;100775.13;5016908;28;45333;-71
2022/06/30 00:05:35;;;;;;;;;0.00;0.00;;;;;22.32;46.25;100771.19;5017350;28;45439;-69
2022/06/30 00:08:01;;;;;;;;;0.00;0.00;;;;;22.19;46.06;100757.75;5017641;28;45668;-69
2022/06/30 00:10:27;;;;;;;;;0.33;0.33;;;;;22.29;46.10;100796.00;5017270;28;45760;-70
2022/06/30 00:12:52;;;;;;;;;1.00;1.00;;;;;22.17;45.40;100796.69;5017031;28;46557;-70
2022/06/30 00:15:18;;;;;;;;;0.67;0.67;;;;;22.20;45.43;100794.59;5017017;28;45369;-70
2022/06/30 00:17:44;;;;;;;;;0.67;0.67;;;;;22.15;45.94;100793.38;5015869;28;45416;-72
2022/06/30 00:20:10;;;;;;;;;0.67;0.00;;;;;21.84;46.19;100752.75;5032618;28;45266;-70
2022/06/30 00:22:35;;;;;;;;;0.00;0.00;;;;;22.05;46.21;100814.72;5016880;28;46183;-69
2022/06/30 00:25:00;;;;;;;;;0.00;0.00;;;;;22.03;46.44;100805.94;5016895;28;45553;-71
2022/06/30 00:27:26;;;;;;;;;0.00;0.00;;;;;21.68;46.61;100743.28;5016865;28;45529;-72
2022/06/30 00:29:51;;;;;;;;;0.00;0.00;;;;;21.99;46.04;100799.28;5015830;28;45423;-72
2022/06/30 00:32:17;;;;;;;;;1.33;0.33;;;;;21.92;46.07;100798.50;5016540;28;46650;-71
2022/06/30 00:34:42;;;;;;;;;0.00;0.00;;;;;21.86;46.05;100815.63;5016702;28;45423;-70
2022/06/30 00:37:08;;;;;;;;;0.00;0.00;;;;;21.85;46.52;100813.97;5016756;28;45324;-71
2022/06/30 00:39:33;;;;;;;;;1.67;0.00;;;;;21.57;45.62;100765.59;5016939;28;45542;-70
2022/06/30 00:41:58;;;;;;;;;0.00;0.00;;;;;21.79;45.72;100803.97;5016546;28;45572;-70
2022/06/30 00:44:24;;;;;;;;;1.00;1.00;;;;;21.71;45.97;100796.94;5015131;28;45392;-71
2022/06/30 00:46:49;;;;;;;;;0.00;0.00;;;;;21.68;45.79;100813.63;5016611;28;45471;-70
2022/06/30 00:49:17;;;;;;;;;0.00;0.00;;;;;21.70;46.00;100827.75;5016650;28;45659;-72
2022/06/30 00:51:43;;;;;;;;;1.00;1.00;;;;;21.64;46.41;100830.50;5016694;28;46587;-71
2022/06/30 00:54:10;;;;;;;;;1.00;1.00;;;;;21.45;46.61;100792.50;5016984;28;45427;-72
2022/06/30 00:56:40;;;;;;;;;1.00;0.00;;;;;21.60;46.95;100826.53;5015339;28;45365;-72
2022/06/30 00:59:08;;;;;;;;;0.00;0.00;;;;;21.58;47.06;100818.66;5016948;28;45314;-71
2022/06/30 01:01:37;;;;;;;;;6.67;6.67;;;;;21.54;47.18;100812.84;5031602;28;47425;-71
2022/06/30 01:04:03;;;;;;;;;0.00;0.00;;;;;21.35;47.72;100772.34;5015862;28;45421;-70
2022/06/30 01:06:29;;;;;;;;;1.00;1.00;;;;;21.50;47.92;100789.97;5016507;28;45264;-70
2022/06/30 01:08:57;;;;;;;;;1.00;1.00;;;;;21.38;47.56;100780.84;5018172;28;45293;-71
2022/06/30 01:14:06;;;;;;;;;0.67;0.67;;;;;20.81;48.10;100714.03;5019991;28;45342;-71
2022/06/30 01:16:32;;;;;;;;;2.33;1.33;;;;;20.09;48.45;100602.41;5019577;28;45349;-71
2022/06/30 01:18:57;;;;;;;;;0.67;0.67;;;;;21.27;48.15;100797.75;5020016;28;45201;-69
2022/06/30 01:21:28;;;;;;;;;1.00;1.00;;;;;20.67;48.45;100713.25;5019449;28;45287;-69
2022/06/30 01:23:55;;;;;;;;;1.00;1.00;;;;;21.17;48.62;100795.44;5019517;28;45330;-71
2022/06/30 01:26:23;;;;;;;;;0.33;0.33;;;;;21.23;48.57;100807.31;5019509;28;45250;-70
2022/06/30 01:28:49;;;;;;;;;1.00;1.00;;;;;21.07;48.45;100778.84;5019648;28;45563;-71
2022/06/30 01:31:15;;;;;;;;;1.00;1.00;;;;;21.16;48.89;100788.38;5019227;28;45663;-70
2022/06/30 01:33:40;;;;;;;;;0.00;0.00;;;;;20.90;48.76;100756.84;5019189;28;45456;-71
2022/06/30 01:36:06;;;;;;;;;1.00;1.00;;;;;21.14;49.24;100809.41;5019587;28;45522;-71
2022/06/30 01:38:31;;;;;;;;;1.00;1.00;;;;;21.01;48.58;100778.84;5019645;28;45424;-69
2022/06/30 01:40:56;;;;;;;;;21.33;20.33;;;;;21.15;48.90;100783.19;5019192;28;45652;-71
2022/06/30 01:43:23;;;;;;;;;1.00;1.00;;;;;20.45;48.90;100665.94;5019014;28;45400;-71
2022/06/30 01:45:48;;;;;;;;;1.00;1.00;;;;;20.91;48.45;100760.38;5019086;28;45390;-71
2022/06/30 01:48:14;;;;;;;;;0.00;0.00;;;;;21.15;48.58;100802.94;5019469;28;45495;-71
2022/06/30 01:50:39;;;;;;;;;0.67;0.67;;;;;21.06;48.57;100784.47;5019144;28;45509;-70
2022/06/30 01:53:05;;;;;;;;;1.00;1.00;;;;;20.92;48.69;100781.78;5019055;28;45369;-73
2022/06/30 01:55:30;;;;;;;;;2.00;0.67;;;;;20.89;49.00;100771.41;5019273;28;45503;-69
2022/06/30 01:57:55;;;;;;;;;0.67;0.67;;;;;21.10;49.01;100808.16;5019369;28;45376;-71
2022/06/30 02:00:26;;;;;;;;;1.00;1.00;;;;;20.99;48.96;100787.19;5018772;28;45829;-71
2022/06/30 02:02:53;;;;;;;;;1.67;0.33;;;;;21.07;49.29;100810.47;5018924;28;45407;-69
2022/06/30 02:05:19;;;;;;;;;0.33;0.33;;;;;20.88;49.26;100788.66;5017525;28;45288;-72
2022/06/30 02:07:44;;;;;;;;;0.67;0.67;;;;;20.99;49.43;100806.09;5018993;28;45494;-72
2022/06/30 02:10:19;;;;;;;;;1.33;1.33;;;;;21.01;49.69;100811.28;5017393;28;46612;-70
2022/06/30 02:12:45;;;;;;;;;2.33;2.33;;;;;21.00;49.64;100809.63;5018760;28;45411;-71
2022/06/30 02:15:32;;;;;;;;;2.00;0.00;;;;;21.04;49.83;100811.72;5018950;28;45317;-71
2022/06/30 02:18:03;;;;;;;;;1.00;1.00;;;;;21.03;50.17;100803.81;5019097;28;45523;-72
2022/06/30 02:20:28;;;;;;;;;1.00;1.00;;;;;20.95;50.37;100786.78;5016694;28;48222;-70
2022/06/30 02:22:57;;;;;;;;;1.00;1.00;;;;;21.02;50.80;100791.31;5018523;28;45430;-69
2022/06/30 02:25:25;;;;;;;;;0.00;0.00;;;;;20.99;50.47;100791.75;5018744;28;45326;-70
2022/06/30 02:27:50;;;;;;;;;1.00;1.00;;;;;20.98;50.79;100776.56;5017553;28;45342;-70
2022/06/30 02:30:16;;;;;;;;;2.00;2.00;;;;;20.86;51.01;100774.53;5018193;28;46337;-70
2022/06/30 02:32:42;;;;;;;;;1.00;1.00;;;;;20.90;50.79;100797.38;5018534;28;45511;-71
2022/06/30 02:35:07;;;;;;;;;2.33;1.00;;;;;20.93;50.59;100796.13;5017128;28;45321;-71
2022/06/30 02:37:33;;;;;;;;;1.67;1.67;;;;;20.90;50.17;100783.88;5018681;28;45456;-71
2022/06/30 02:39:58;;;;;;;;;1.33;1.33;;;;;20.78;50.60;100774.75;5018157;28;45656;-70
2022/06/30 02:42:24;;;;;;;;;3.33;1.67;;;;;20.85;50.70;100797.19;5018422;28;45379;-69
2022/06/30 02:44:49;;;;;;;;;1.00;1.00;;;;;20.16;50.56;100686.06;5018503;28;45426;-69
2022/06/30 02:47:15;;;;;;;;;1.00;1.00;;;;;20.85;50.82;100793.66;5018452;28;45497;-69
2022/06/30 02:49:40;;;;;;;;;2.00;2.00;;;;;20.82;50.60;100797.63;5018531;28;45591;-69
2022/06/30 02:52:07;;;;;;;;;1.00;1.00;;;;;20.88;50.73;100821.09;5018246;28;45397;-71
2022/06/30 02:54:32;;;;;;;;;0.00;0.00;;;;;20.81;50.49;100804.03;5016960;28;45250;-71
2022/06/30 02:56:57;;;;;;;;;0.00;0.00;;;;;20.75;50.37;100799.47;5019120;28;45162;-69
2022/06/30 02:59:23;;;;;;;;;1.00;1.00;;;;;20.77;50.66;100789.28;5018011;28;45277;-71
2022/06/30 03:01:49;;;;;;;;;2.33;1.00;;;;;20.76;50.04;100790.34;5016743;28;45597;-72
2022/06/30 03:04:14;;;;;;;;;1.00;1.00;;;;;20.47;49.84;100750.25;5018056;28;45479;-71
2022/06/30 03:06:39;;;;;;;;;3.00;2.00;;;;;20.45;50.06;100755.03;5018351;28;45423;-69
2022/06/30 03:09:05;;;;;;;;;1.00;1.00;;;;;20.68;50.34;100800.53;5016383;28;48358;-72
2022/06/30 03:11:31;;;;;;;;;4.33;1.00;;;;;20.67;49.72;100793.47;5033192;28;45229;-70
2022/06/30 03:13:57;;;;;;;;;2.00;1.00;;;;;20.74;50.13;100826.72;5018221;28;45274;-74
2022/06/30 03:16:22;;;;;;;;;2.00;2.00;;;;;20.41;50.41;100759.19;5018084;28;45443;-71
2022/06/30 03:18:48;;;;;;;;;1.00;1.00;;;;;20.72;50.38;100808.00;5017658;28;45843;-70
2022/06/30 03:21:13;;;;;;;;;0.00;0.00;;;;;20.71;50.17;100809.06;5017794;28;45305;-70
2022/06/30 03:23:39;;;;;;;;;2.00;2.00;;;;;20.75;50.25;100804.88;5017827;28;45300;-70
2022/06/30 03:26:05;;;;;;;;;3.00;2.00;;;;;20.72;50.29;100783.69;5018063;28;45982;-72
2022/06/30 03:28:32;;;;;;;;;2.00;2.00;;;;;20.41;50.17;100729.47;5017667;28;47023;-73
2022/06/30 03:30:58;;;;;;;;;2.33;1.00;;;;;20.52;49.48;100748.59;5016623;28;45518;-69
2022/06/30 03:33:24;;;;;;;;;2.33;0.00;;;;;20.51;49.30;100756.91;5016294;28;45504;-72
2022/06/30 03:35:50;;;;;;;;;1.33;1.33;;;;;20.76;49.39;100817.34;5017649;28;45290;-73
2022/06/30 03:38:15;;;;;;;;;0.33;0.33;;;;;20.76;49.35;100828.16;5016181;28;47287;-71
2022/06/30 03:40:41;;;;;;;;;1.00;1.00;;;;;20.72;49.39;100824.22;5017247;28;45366;-71
2022/06/30 03:43:07;;;;;;;;;1.00;1.00;;;;;20.73;49.71;100825.06;5017426;28;45317;-72
2022/06/30 03:45:33;;;;;;;;;1.33;1.33;;;;;20.73;49.56;100825.88;5017551;28;45477;-70
2022/06/30 03:48:03;;;;;;;;;2.33;2.33;;;;;20.57;49.28;100800.09;5016823;28;46203;-70
2022/06/30 03:50:30;;;;;;;;;2.00;2.00;;;;;20.75;49.59;100806.75;5017106;28;45261;-72
2022/06/30 03:52:56;;;;;;;;;3.33;3.33;;;;;20.66;50.06;100803.44;5017038;28;45159;-72
2022/06/30 03:55:21;;;;;;;;;11.00;8.67;;;;;20.50;50.02;100785.78;5048889;28;45662;-72
2022/06/30 03:57:46;;;;;;;;;2.33;2.33;;;;;20.15;49.77;100731.13;5015424;28;45776;-70
2022/06/30 04:00:12;;;;;;;;;3.33;2.33;;;;;20.73;50.35;100828.59;5016827;28;45362;-72
2022/06/30 04:02:38;;;;;;;;;2.00;2.00;;;;;20.63;50.07;100814.69;5017164;28;45240;-69
2022/06/30 04:05:04;;;;;;;;;2.00;2.00;;;;;20.04;49.91;100719.06;5017199;28;45538;-70
2022/06/30 04:07:29;;;;;;;;;28.00;27.33;;;;;20.76;50.28;100841.66;5015305;28;45943;-70
2022/06/30 04:09:55;;;;;;;;;21.67;21.33;;;;;20.77;50.97;100827.13;5016685;28;45479;-71
2022/06/30 04:12:20;;;;;;;;;2.00;2.00;;;;;20.45;51.49;100779.34;5017189;28;45657;-72
2022/06/30 04:14:46;;;;;;;;;4.67;4.33;;;;;20.74;53.01;100824.84;5017199;28;45488;-70
2022/06/30 04:17:11;;;;;;;;;3.00;3.00;;;;;20.72;52.84;100829.63;5016993;28;46684;-70
2022/06/30 04:19:37;;;;;;;;;5.67;5.67;;;;;20.33;53.51;100771.81;5018256;28;45283;-71
2022/06/30 04:22:03;;;;;;;;;3.33;3.00;;;;;20.65;54.07;100823.41;5016600;28;45495;-72
2022/06/30 04:24:29;;;;;;;;;2.33;2.00;;;;;20.63;54.71;100836.28;5017342;28;45380;-71
2022/06/30 04:26:54;;;;;;;;;3.67;3.67;;;;;19.93;54.02;100724.25;5016675;28;46616;-71
2022/06/30 04:29:19;;;;;;;;;29.67;22.67;;;;;20.51;55.11;100827.13;5015396;28;45455;-72
2022/06/30 04:34:29;;;;;;;;;3.33;3.00;;;;;20.35;54.34;100818.34;5016902;28;45259;-71
2022/06/30 04:36:54;;;;;;;;;3.33;2.00;;;;;20.40;53.71;100831.22;5016514;28;46587;-71
2022/06/30 04:39:21;;;;;;;;;6.00;3.67;;;;;20.34;54.64;100838.28;5015380;28;46065;-72
2022/06/30 04:41:46;;;;;;;;;2.33;2.33;;;;;20.10;54.82;100801.09;5016496;28;45465;-70
2022/06/30 04:44:11;;;;;;;;;4.00;4.00;;;;;20.25;54.94;100825.22;5020293;28;45301;-71
2022/06/30 04:46:37;;;;;;;;;3.00;1.33;;;;;20.33;54.45;100850.13;5035154;28;47581;-72
2022/06/30 04:49:02;;;;;;;;;2.33;2.00;;;;;20.34;55.38;100862.59;5019974;28;45529;-69
2022/06/30 04:51:27;;;;;;;;;21.33;20.33;;;;;20.28;55.59;100844.53;5018143;28;53351;-72
2022/06/30 04:53:53;;;;;;;;;12.00;11.67;;;;;20.29;55.98;100838.09;5020119;28;45407;-70
2022/06/30 04:56:20;;;;;;;;;2.00;2.00;;;;;20.27;55.34;100831.22;5018535;28;47587;-71
2022/06/30 04:58:45;;;;;;;;;4.33;3.33;;;;;20.25;55.51;100831.44;5019781;28;45483;-70
2022/06/30 05:01:11;;;;;;;;;2.00;2.00;;;;;20.01;56.17;100803.13;5019887;28;45245;-72
2022/06/30 05:03:37;;;;;;;;;2.00;2.00;;;;;20.08;56.68;100803.16;5019880;28;45252;-72
2022/06/30 05:06:05;;;;;;;;;6.33;4.67;;;;;19.43;57.23;100700.25;5019391;28;45800;-70
2022/06/30 05:08:31;;;;;;;;;1.67;1.67;;;;;20.12;56.86;100801.72;5019115;28;45400;-70
2022/06/30 05:10:57;;;;;;;;;4.00;3.00;;;;;20.07;56.68;100787.19;5019803;28;45276;-71
2022/06/30 05:13:23;;;;;;;;;3.00;3.00;;;;;20.18;57.67;100803.56;5019676;28;45346;-72
2022/06/30 05:15:48;;;;;;;;;5.00;4.00;;;;;20.18;57.96;100806.28;5019120;28;46442;-71
2022/06/30 05:18:14;;;;;;;;;10.33;9.33;;;;;20.23;58.19;100808.38;5019305;28;45312;-71
2022/06/30 05:20:41;;;;;;;;;8.67;8.67;;;;;19.89;57.65;100747.28;5019522;28;45218;-73
2022/06/30 05:23:07;;;;;;;;;9.00;9.00;;;;;20.25;57.47;100812.53;5017799;28;45720;-69
2022/06/30 05:28:17;;;;;;;;;3.00;3.00;;;;;20.16;56.97;100819.16;5019163;28;45315;-73
2022/06/30 05:30:43;;;;;;;;;6.67;4.00;;;;;20.06;57.76;100813.34;5019247;28;45185;-72
2022/06/30 05:33:09;;;;;;;;;31.67;31.33;;;;;20.02;58.00;100796.72;5019232;28;45233;-74
2022/06/30 05:35:35;;;;;;;;;15.00;12.67;;;;;20.23;57.57;100844.31;5018891;28;46040;-71
2022/06/30 05:38:00;;;;;;;;;9.00;5.67;;;;;19.93;57.58;100797.09;5017677;28;45389;-70
2022/06/30 05:40:27;;;;;;;;;13.00;11.67;;;;;20.25;57.22;100844.94;5019056;28;45294;-71
2022/06/30 05:42:52;;;;;;;;;6.00;4.67;;;;;20.19;57.51;100843.03;5017614;28;45517;-72
2022/06/30 05:45:17;;;;;;;;;3.67;3.00;;;;;20.20;57.95;100842.00;5019001;28;46127;-71
2022/06/30 05:47:45;;;;;;;;;3.33;3.33;;;;;20.22;58.25;100842.66;5019752;28;45423;-72
2022/06/30 05:50:11;;;;;;;;;14.67;14.67;;;;;20.05;58.45;100817.91;5018848;28;45358;-70
2022/06/30 05:52:37;;;;;;;;;4.67;4.67;;;;;20.18;58.35;100848.63;5017560;28;45630;-69
2022/06/30 05:55:02;;;;;;;;;6.00;6.00;;;;;20.18;58.62;100854.88;5017763;28;46048;-72
2022/06/30 05:57:28;;;;;;;;;7.00;4.00;;;;;20.12;58.01;100855.69;5018734;28;45293;-70
2022/06/30 05:59:53;;;;;;;;;2.67;2.67;;;;;20.08;58.18;100853.63;5018968;28;45416;-73
2022/06/30 06:02:18;;;;;;;;;7.33;5.67;;;;;20.07;58.71;100855.47;5017453;28;45276;-71
2022/06/30 06:04:44;;;;;;;;;2.33;2.33;;;;;19.90;58.62;100829.88;5018321;28;46458;-70
2022/06/30 06:07:09;;;;;;;;;3.33;3.33;;;;;19.91;58.78;100823.47;5050490;28;45309;-70
2022/06/30 06:09:35;;;;;;;;;4.00;4.00;;;;;19.86;59.09;100823.25;5018947;28;45253;-70
2022/06/30 06:12:00;;;;;;;;;3.00;3.00;;;;;19.90;59.06;100829.88;5018877;28;45165;-71
2022/06/30 06:14:25;;;;;;;;;3.00;3.00;;;;;19.93;58.51;100843.81;5017058;28;47456;-71
2022/06/30 06:16:51;;;;;;;;;3.00;3.00;;;;;19.91;58.97;100842.34;5018416;28;45427;-71
2022/06/30 06:19:16;;;;;;;;;4.33;4.00;;;;;19.65;58.77;100806.16;5018324;28;45311;-70
2022/06/30 06:21:41;;;;;;;;;3.00;2.00;;;;;19.87;58.80;100851.88;5018921;28;45481;-70
2022/06/30 06:24:07;;;;;;;;;2.33;2.33;;;;;19.77;59.40;100827.13;5018223;28;45404;-71
2022/06/30 06:26:33;;;;;;;;;3.67;3.67;;;;;19.21;59.56;100709.47;5018290;28;45349;-73
2022/06/30 06:29:07;;;;;;;;;6.33;5.33;;;;;19.93;59.13;100835.72;5018573;28;45373;-70
2022/06/30 06:31:34;;;;;;;;;3.00;2.00;;;;;19.43;59.17;100747.97;5017105;28;45597;-72
2022/06/30 06:34:00;;;;;;;;;1.00;1.00;;;;;19.81;58.98;100814.91;5016737;28;47403;-70
2022/06/30 06:36:26;;;;;;;;;4.00;4.00;;;;;19.94;59.97;100836.53;5018904;28;45277;-72
2022/06/30 06:38:52;;;;;;;;;5.00;4.67;;;;;20.04;59.74;100842.41;5019275;28;45429;-72
2022/06/30 06:41:20;;;;;;;;;4.00;3.67;;;;;19.82;59.58;100813.88;5020432;28;45415;-71
2022/06/30 06:43:49;;;;;;;;;11.67;11.00;;;;;19.74;60.04;100794.13;5019055;28;46559;-72
2022/06/30 06:46:15;;;;;;;;;3.00;3.00;;;;;19.57;59.55;100765.03;5017953;28;45435;-71
2022/06/30 06:48:41;;;;;;;;;6.00;5.00;;;;;20.16;59.70;100865.03;5018027;28;45520;-72
2022/06/30 06:51:07;;;;;;;;;6.00;6.00;;;;;20.07;59.91;100854.66;5016664;28;45684;-71
2022/06/30 06:53:33;;;;;;;;;5.00;5.00;;;;;20.14;59.53;100871.69;5017723;28;46442;-71
2022/06/30 06:55:58;;;;;;;;;7.67;7.00;;;;;19.45;59.90;100773.69;5017677;28;45499;-72
2022/06/30 06:58:24;;;;;;;;;3.33;3.33;;;;;20.03;59.63;100887.44;5016609;28;45182;-71
2022/06/30 07:00:50;;;;;;;;;6.00;6.00;;;;;19.69;59.49;100839.78;5050105;28;45485;-71
2022/06/30 07:03:16;;;;;;;;;4.67;3.67;;;;;19.69;59.62;100864.06;5016080;28;48577;-70
2022/06/30 07:05:41;;;;;;;;;7.67;5.00;;;;;19.47;59.61;100821.19;5016425;28;45602;-71
2022/06/30 07:08:06;;;;;;;;;3.33;3.33;;;;;19.75;59.47;100881.28;5016034;28;45303;-71
2022/06/30 07:10:32;;;;;;;;;3.67;3.67;;;;;19.70;59.34;100873.81;5018108;28;45601;-72
2022/06/30 07:12:57;;;;;;;;;6.33;4.67;;;;;19.86;59.95;100914.97;5049864;28;48574;-71
2022/06/30 07:15:23;;;;;;;;;7.00;4.67;;;;;19.64;60.35;100874.63;5017669;28;45339;-70
2022/06/30 07:17:49;;;;;;;;;10.33;10.33;;;;;19.51;60.75;100842.16;5015933;28;45383;-72
2022/06/30 07:20:14;;;;;;;;;7.33;5.67;;;;;19.86;61.00;100905.03;5017788;28;45345;-70
2022/06/30 07:22:40;;;;;;;;;9.33;7.00;;;;;19.81;60.73;100890.44;5016225;28;47482;-71
2022/06/30 07:25:06;;;;;;;;;6.00;6.00;;;;;19.14;60.93;100793.00;5017288;28;45315;-73
2022/06/30 07:27:32;;;;;;;;;7.00;6.00;;;;;19.75;61.14;100884.81;5017542;28;45230;-73
2022/06/30 07:29:58;;;;;;;;;5.67;4.00;;;;;19.61;60.46;100858.81;5017593;28;45594;-70
2022/06/30 07:32:23;;;;;;;;;3.00;3.00;;;;;19.64;59.72;100880.00;5017386;28;45257;-72
2022/06/30 07:34:49;;;;;;;;;8.67;4.33;;;;;19.53;60.15;100845.47;5017330;28;45243;-71
2022/06/30 07:37:15;;;;;;;;;5.67;3.00;;;;;19.89;60.43;100893.81;5017253;28;45554;-71
2022/06/30 07:39:40;;;;;;;;;6.33;5.00;;;;;19.81;60.73;100863.47;5016230;28;45360;-72
2022/06/30 07:42:06;;;;;;;;;5.00;4.00;;;;;19.62;60.94;100832.66;5017374;28;45663;-72
2022/06/30 07:44:31;;;;;;;;;5.67;5.67;;;;;19.24;60.57;100767.56;5017030;28;45391;-71
2022/06/30 07:46:57;;;;;;;;;1.00;1.00;;;;;19.13;60.39;100753.63;5016924;28;45346;-70
2022/06/30 07:49:22;;;;;;;;;6.00;4.33;;;;;19.96;59.56;100891.13;5017075;28;45471;-71
2022/06/30 07:51:48;;;;;;;;;9.67;7.00;;;;;19.28;60.07;100785.00;5016998;28;46352;-72
2022/06/30 07:54:14;;;;;;;;;6.00;6.00;;;;;19.95;59.28;100902.97;5017008;28;45306;-72
2022/06/30 07:56:40;;;;;;;;;5.00;5.00;;;;;19.97;59.80;100906.28;5017026;28;45467;-70
2022/06/30 07:59:05;;;;;;;;;5.33;3.67;;;;;19.97;59.45;100906.28;5017177;28;45438;-71
2022/06/30 08:01:30;;;;;;;;;5.33;4.00;;;;;19.32;59.43;100789.78;5016971;28;45641;-72
2022/06/30 08:03:57;;;;;;;;;6.00;5.33;;;;;19.56;59.77;100828.91;5016669;28;45415;-70
2022/06/30 08:06:24;;;;;;;;;5.00;4.33;;;;;20.00;59.97;100895.09;5016826;28;45374;-72
2022/06/30 08:08:50;;;;;;;;;7.00;5.00;;;;;19.41;59.95;100793.97;5016856;28;45356;-72
2022/06/30 08:11:16;;;;;;;;;3.67;2.00;;;;;19.77;59.73;100849.56;5016976;28;46503;-69
2022/06/30 08:13:41;;;;;;;;;5.00;4.00;;;;;19.54;58.90;100814.81;5017075;28;45320;-70
2022/06/30 08:16:06;;;;;;;;;1.33;1.33;;;;;19.94;58.11;100882.41;5016883;28;45424;-70
2022/06/30 08:18:32;;;;;;;;;3.00;2.00;;;;;19.92;59.14;100908.78;5051729;28;45277;-70
2022/06/30 08:20:58;;;;;;;;;7.00;4.00;;;;;19.86;59.54;100893.38;5020379;28;46556;-70
2022/06/30 08:23:23;;;;;;;;;4.67;4.67;;;;;19.78;59.28;100863.88;5020158;28;45389;-72
2022/06/30 08:25:48;;;;;;;;;5.00;3.67;;;;;19.85;59.27;100870.16;5020529;28;45387;-71
2022/06/30 08:28:14;;;;;;;;;6.00;4.00;;;;;19.92;59.63;100876.38;5020527;28;45480;-70
2022/06/30 08:30:39;;;;;;;;;4.67;4.67;;;;;19.78;59.46;100851.22;5020094;28;45686;-70
2022/06/30 08:33:05;;;;;;;;;3.67;3.67;;;;;19.24;58.75;100767.56;5035237;28;45412;-70
2022/06/30 08:35:30;;;;;;;;;2.67;1.67;;;;;19.63;58.56;100837.91;5021430;28;45425;-71
2022/06/30 08:37:56;;;;;;;;;3.67;3.67;;;;;19.83;57.34;100880.31;5021326;28;45652;-73
2022/06/30 08:43:09;;;;;;;;;10.67;10.67;;;;;18.39;57.47;100663.63;5020181;28;45260;-70
2022/06/30 08:45:35;;;;;;;;;7.67;7.67;;;;;19.77;58.43;100894.56;5020185;28;45370;-71
2022/06/30 08:48:01;;;;;;;;;11.33;11.00;;;;;19.54;58.92;100841.78;5019927;28;45335;-72
2022/06/30 08:50:26;;;;;;;;;3.00;2.00;;;;;19.31;58.70;100792.69;5019696;28;45699;-72
2022/06/30 08:52:54;;;;;;;;;4.00;4.00;;;;;19.47;58.96;100818.50;5018435;28;45872;-71
2022/06/30 08:55:25;;;;;;;;;4.00;4.00;;;;;19.86;58.90;100875.34;5020012;28;45419;-71
2022/06/30 08:57:55;;;;;;;;;4.00;4.00;;;;;19.63;59.55;100827.09;5019925;28;45553;-71
2022/06/30 09:00:20;;;;;;;;;5.67;4.00;;;;;19.32;58.14;100778.19;5017986;28;47151;-70
2022/06/30 09:02:46;;;;;;;;;7.67;5.00;;;;;19.87;58.91;100878.88;5019443;28;45549;-70
2022/06/30 09:05:13;;;;;;;;;9.33;8.33;;;;;19.90;58.99;100867.66;5051996;28;45424;-69
2022/06/30 09:07:38;;;;;;;;;5.33;4.33;;;;;19.89;59.20;100860.59;5020198;28;45355;-71
2022/06/30 09:10:05;;;;;;;;;3.00;3.00;;;;;19.91;59.20;100861.22;5018025;28;46143;-71
2022/06/30 09:12:31;;;;;;;;;2.33;2.33;;;;;19.54;58.78;100792.41;5018160;28;45195;-71
2022/06/30 09:14:56;;;;;;;;;2.00;2.00;;;;;19.90;58.66;100846.91;5018435;28;45285;-71
2022/06/30 09:17:24;;;;;;;;;2.00;2.00;;;;;19.67;58.29;100814.88;5019914;28;45171;-71
2022/06/30 09:20:04;;;;;;;;;2.00;2.00;;;;;19.84;57.80;100846.91;5019378;28;46382;-72
2022/06/30 09:22:37;;;;;;;;;4.67;3.00;;;;;19.78;58.09;100848.50;5017734;28;45768;-72
2022/06/30 09:25:07;;;;;;;;;6.00;6.00;;;;;19.73;58.77;100851.81;5017894;28;45232;-73
2022/06/30 09:27:44;;;;;;;;;2.00;2.00;;;;;18.96;58.29;100736.09;5034960;28;45590;-72
2022/06/30 09:30:12;;;;;;;;;1.33;1.33;;;;;19.71;58.69;100877.34;5017883;28;45668;-70
2022/06/30 09:32:48;;;;;;;;;3.00;2.00;;;;;19.74;58.65;100875.06;5019190;28;45225;-70
2022/06/30 09:35:14;;;;;;;;;4.00;1.67;;;;;19.23;58.80;100790.16;5019514;28;45473;-72
2022/06/30 09:37:41;;;;;;;;;2.00;2.00;;;;;19.78;58.93;100880.06;5018185;28;45336;-70
2022/06/30 09:40:09;;;;;;;;;2.67;2.67;;;;;19.55;59.11;100843.44;5017637;28;48440;-72
2022/06/30 09:42:47;;;;;;;;;3.00;3.00;;;;;19.79;59.49;100879.03;5019227;28;45450;-72
2022/06/30 09:45:31;;;;;;;;;3.33;3.33;;;;;19.43;60.19;100820.75;5019210;28;45417;-71
2022/06/30 09:47:57;;;;;;;;;6.00;3.00;;;;;19.80;59.33;100881.50;5019152;28;45487;-71
2022/06/30 09:50:22;;;;;;;;;8.00;5.67;;;;;19.62;59.34;100848.84;5019009;28;46226;-71
2022/06/30 09:53:14;;;;;;;;;7.33;7.33;;;;;19.80;59.73;100889.59;5018905;28;45531;-71
2022/06/30 09:55:45;;;;;;;;;3.33;1.00;;;;;19.74;59.10;100875.06;5018992;28;45502;-71
2022/06/30 09:58:13;;;;;;;;;4.33;4.33;;;;;19.77;59.54;100868.44;5019151;28;45453;-71
2022/06/30 10:00:48;;;;;;;;;2.67;1.00;;;;;19.79;57.91;100897.91;5034138;28;45882;-71
2022/06/30 10:03:13;;;;;;;;;2.00;1.00;;;;;19.38;58.13;100815.09;5017953;28;45535;-72
2022/06/30 10:05:44;;;;;;;;;1.00;1.00;;;;;19.79;57.01;100887.94;5018910;28;45505;-71
2022/06/30 10:08:11;;;;;;;;;1.00;1.00;;;;;19.10;56.96;100770.19;5034490;28;45601;-71
2022/06/30 10:10:37;;;;;;;;;7.00;4.00;;;;;19.70;56.90;100875.69;5018472;28;46571;-72
2022/06/30 10:13:03;;;;;;;;;2.67;2.67;;;;;19.49;57.71;100849.59;5033857;28;45419;-71
2022/06/30 10:15:35;;;;;;;;;5.00;5.00;;;;;19.71;58.21;100886.25;5017272;28;45602;-71
2022/06/30 10:18:02;;;;;;;;;3.00;1.67;;;;;19.70;58.59;100889.16;5018803;28;45227;-71
2022/06/30 10:20:30;;;;;;;;;3.00;3.00;;;;;19.72;58.09;100896.03;5018340;28;46613;-70
2022/06/30 10:22:56;;;;;;;;;4.33;4.00;;;;;19.65;58.42;100888.94;5050767;28;45504;-70
2022/06/30 10:25:22;;;;;;;;;2.00;2.00;;;;;19.75;58.83;100914.50;5018571;28;45240;-70
2022/06/30 10:27:49;;;;;;;;;2.00;2.00;;;;;19.55;58.58;100891.16;5017556;28;45255;-71
2022/06/30 10:30:16;;;;;;;;;3.00;3.00;;;;;19.68;59.00;100924.44;5033689;28;45338;-71
2022/06/30 10:33:04;;;;;;;;;3.00;2.00;;;;;19.68;58.60;100946.00;5017120;28;45937;-73
2022/06/30 10:35:56;;;;;;;;;3.67;3.67;;;;;19.51;58.82;100927.63;5019249;28;45407;-72
2022/06/30 10:38:50;;;;;;;;;3.00;3.00;;;;;19.57;59.43;100933.06;5018490;28;45548;-72
2022/06/30 10:41:17;;;;;;;;;4.33;3.00;;;;;19.34;60.29;100906.34;5017394;28;46639;-69
2022/06/30 10:44:05;;;;;;;;;4.00;3.00;;;;;19.53;59.78;100939.84;5018130;28;45322;-71
2022/06/30 10:46:35;;;;;;;;;4.00;1.67;;;;;18.55;59.62;100781.78;5033370;28;45317;-71
2022/06/30 10:49:08;;;;;;;;;8.33;4.67;;;;;18.79;60.19;100831.72;5018495;28;45348;-71
2022/06/30 10:51:34;;;;;;;;;3.67;2.33;;;;;18.62;60.23;100819.53;5017783;28;46938;-71
2022/06/30 10:53:59;;;;;;;;;2.33;2.33;;;;;18.92;60.43;100885.72;5017844;28;45467;-72
2022/06/30 10:56:53;;;;;;;;;4.00;4.00;;;;;19.39;59.44;100952.41;5050123;28;45314;-73
2022/06/30 10:59:42;;;;;;;;;3.33;3.33;;;;;18.87;60.37;100888.16;5033202;28;45227;-72
2022/06/30 11:02:10;;;;;;;;;2.00;2.00;;;;;19.27;60.63;100963.94;5032947;28;48827;-72
2022/06/30 11:04:48;;;;;;;;;5.00;4.00;;;;;19.26;60.75;100959.59;5033033;28;45324;-71
2022/06/30 11:07:24;;;;;;;;;4.00;4.00;;;;;19.29;61.43;100972.66;5018138;28;45325;-70
2022/06/30 11:09:50;;;;;;;;;5.00;3.00;;;;;18.77;61.16;100874.19;5018189;28;45353;-70
2022/06/30 11:12:41;;;;;;;;;6.00;3.00;;;;;19.29;60.52;100953.81;5017378;28;46050;-71
2022/06/30 11:15:06;;;;;;;;;4.00;4.00;;;;;18.59;60.28;100833.41;5017569;28;45346;-71
2022/06/30 11:17:37;;;;;;;;;3.00;2.33;;;;;19.35;61.25;100963.78;5016399;28;45328;-72
2022/06/30 11:20:04;;;;;;;;;2.00;2.00;;;;;19.46;61.00;100960.56;5018137;28;45532;-71
2022/06/30 11:22:31;;;;;;;;;2.00;2.00;;;;;19.51;60.83;100966.19;5017356;28;45605;-72
2022/06/30 11:25:05;;;;;;;;;2.33;2.33;;;;;19.32;60.92;100938.06;5018128;28;45316;-71
2022/06/30 11:27:32;;;;;;;;;3.00;3.00;;;;;19.49;61.09;100962.88;5034385;28;45253;-73
2022/06/30 11:30:00;;;;;;;;;2.33;2.33;;;;;19.52;60.75;100961.63;5016428;28;45421;-71
2022/06/30 11:32:26;;;;;;;;;2.33;1.00;;;;;19.25;60.77;100914.78;5016143;28;47235;-72
2022/06/30 11:34:53;;;;;;;;;3.67;2.67;;;;;19.52;60.80;100957.06;5017259;28;45382;-71